Time;durP1;ratioP1;P1;durP2;ratioP2;P2;SDS_P1;SDS_P2;PMS_P1;PMS_P2;Temp;Humidity;BMP_temperature;BMP_pressure;BME280_temperature;BME280_humidity;BME280_pressure;Samples;Min_cycle;Max_cycle;Signal;HPM_P1;HPM_P2
2021/03/04 00:00:13;;;;;;;15.80;7.13;;;10.90;99.90;;;;;;5093198;28;20444;-81
2021/03/04 00:02:39;;;;;;;11.77;6.03;;;10.90;99.90;;;;;;5092744;28;20114;-81
2021/03/04 00:05:06;;;;;;;14.35;8.07;;;10.80;99.90;;;;;;5092778;28;20024;-81
2021/03/04 00:07:32;;;;;;;17.17;7.65;;;10.70;99.90;;;;;;5092729;28;20069;-81
2021/03/04 00:09:57;;;;;;;17.98;8.13;;;10.60;99.90;;;;;;5092715;28;20055;-81
2021/03/04 00:12:23;;;;;;;14.20;7.30;;;10.60;99.90;;;;;;5092486;28;20041;-81
2021/03/04 00:14:49;;;;;;;19.15;7.63;;;10.50;99.90;;;;;;5092594;28;20024;-81
2021/03/04 00:17:15;;;;;;;13.98;7.25;;;10.50;99.90;;;;;;5092673;28;20544;-81
2021/03/04 00:19:40;;;;;;;15.32;7.10;;;10.40;99.90;;;;;;5092570;28;20578;-81
2021/03/04 00:22:06;;;;;;;16.67;7.00;;;10.30;99.90;;;;;;5092816;28;20036;-81
2021/03/04 00:24:32;;;;;;;14.85;6.95;;;10.30;99.90;;;;;;5092166;28;20047;-81
2021/03/04 00:26:58;;;;;;;12.80;6.45;;;10.30;99.90;;;;;;5092083;28;20056;-81
2021/03/04 00:29:23;;;;;;;14.27;7.10;;;10.30;99.90;;;;;;5074262;28;20062;-81
2021/03/04 00:31:49;;;;;;;16.10;7.10;;;10.30;99.90;;;;;;5091485;28;20403;-81
2021/03/04 00:34:15;;;;;;;15.35;7.65;;;10.30;99.90;;;;;;5092169;28;20480;-81
2021/03/04 00:36:40;;;;;;;15.68;7.82;;;10.30;99.90;;;;;;5092120;28;20082;-81
2021/03/04 00:39:08;;;;;;;17.08;7.28;;;10.20;99.90;;;;;;5092485;28;20032;-81
2021/03/04 00:41:37;;;;;;;19.23;7.88;;;10.20;99.90;;;;;;5092309;28;20043;-81
2021/03/04 00:44:04;;;;;;;16.05;7.38;;;10.20;99.90;;;;;;5092373;28;20430;-81
2021/03/04 00:46:30;;;;;;;13.73;7.50;;;10.30;99.90;;;;;;5091775;28;20030;-81
2021/03/04 00:48:55;;;;;;;18.88;7.88;;;10.30;99.90;;;;;;5092008;28;20020;-81
2021/03/04 00:51:21;;;;;;;18.17;7.95;;;10.30;99.90;;;;;;5091951;28;20468;-81
2021/03/04 00:53:46;;;;;;;14.70;7.25;;;10.20;99.90;;;;;;5092168;28;20067;-81
2021/03/04 00:56:12;;;;;;;13.65;8.30;;;10.20;99.90;;;;;;5075965;28;20021;-81
2021/03/04 00:58:37;;;;;;;17.48;8.55;;;10.20;99.90;;;;;;5095842;28;20032;-81
2021/03/04 01:01:04;;;;;;;19.08;7.93;;;10.20;99.90;;;;;;5096349;28;20116;-81
2021/03/04 01:03:30;;;;;;;15.68;8.63;;;10.20;99.90;;;;;;5095856;28;20060;-81
2021/03/04 01:05:56;;;;;;;19.42;7.75;;;10.20;99.90;;;;;;5077860;28;20380;-81
2021/03/04 01:08:21;;;;;;;17.58;8.45;;;10.20;99.90;;;;;;5076104;28;20029;-81
2021/03/04 01:10:47;;;;;;;13.60;8.00;;;10.20;99.90;;;;;;5075538;28;20025;-81
2021/03/04 01:13:13;;;;;;;19.80;8.45;;;10.20;99.90;;;;;;5075884;28;20108;-81
2021/03/04 01:15:38;;;;;;;13.98;8.25;;;10.20;99.90;;;;;;5075782;28;20078;-81
2021/03/04 01:18:05;;;;;;;15.88;8.65;;;10.20;99.90;;;;;;5091915;28;20024;-81
2021/03/04 01:20:31;;;;;;;16.85;8.60;;;10.20;99.90;;;;;;5095437;28;20020;-81
2021/03/04 01:22:57;;;;;;;16.40;8.27;;;10.20;99.90;;;;;;5095858;28;20054;-81
2021/03/04 01:25:23;;;;;;;17.90;8.75;;;10.20;99.90;;;;;;5095687;28;20032;-81
2021/03/04 01:27:51;;;;;;;17.63;8.57;;;10.20;99.90;;;;;;5095743;28;20028;-81
2021/03/04 01:30:18;;;;;;;18.25;8.32;;;10.20;99.90;;;;;;5095441;28;20031;-81
2021/03/04 01:32:44;;;;;;;18.15;8.63;;;10.20;99.90;;;;;;5095502;28;20353;-81
2021/03/04 01:35:10;;;;;;;17.63;8.55;;;10.20;99.90;;;;;;5068997;28;20031;-81
2021/03/04 01:37:36;;;;;;;23.42;8.85;;;10.10;99.90;;;;;;5095688;28;20020;-81
2021/03/04 01:40:07;;;;;;;22.73;9.25;;;10.10;99.90;;;;;;5093746;28;20138;-81
2021/03/04 01:42:33;;;;;;;19.33;8.68;;;10.10;99.90;;;;;;5095474;28;20034;-81
2021/03/04 01:44:58;;;;;;;18.75;8.43;;;10.10;99.90;;;;;;5095490;28;20095;-81
2021/03/04 01:47:24;;;;;;;14.20;8.60;;;10.10;99.90;;;;;;5095418;28;20116;-81
2021/03/04 01:49:50;;;;;;;18.83;8.73;;;10.10;99.90;;;;;;5076717;28;20483;-81
2021/03/04 01:52:16;;;;;;;19.08;9.25;;;10.20;99.90;;;;;;5095159;28;20035;-81
2021/03/04 01:54:42;;;;;;;20.90;8.95;;;10.20;99.90;;;;;;5077510;28;20392;-81
2021/03/04 01:57:11;;;;;;;19.50;9.27;;;10.20;99.90;;;;;;5095218;28;20031;-81
2021/03/04 01:59:36;;;;;;;18.15;8.52;;;10.20;99.90;;;;;;5095105;28;20066;-81
2021/03/04 02:02:03;;;;;;;16.70;8.50;;;10.20;99.90;;;;;;5094869;28;20071;-81
2021/03/04 02:04:28;;;;;;;18.25;9.02;;;10.30;99.90;;;;;;5076743;28;20031;-81
2021/03/04 02:07:18;;;;;;;21.58;9.23;;;10.30;99.90;;;;;;5093902;28;20028;-81
2021/03/04 02:09:54;;;;;;;22.70;8.82;;;10.30;99.90;;;;;;5095022;28;20031;-81
2021/03/04 02:12:27;;;;;;;14.68;8.70;;;10.30;99.90;;;;;;5094994;28;20467;-81
2021/03/04 02:15:03;;;;;;;16.08;9.38;;;10.30;99.90;;;;;;5079640;28;20529;-81
2021/03/04 02:17:31;;;;;;;17.17;8.95;;;10.20;99.90;;;;;;5095008;28;20012;-81
2021/03/04 02:20:04;;;;;;;13.55;8.65;;;10.10;99.90;;;;;;5094438;28;20016;-81
2021/03/04 02:22:58;;;;;;;17.25;9.05;;;10.10;99.90;;;;;;5094361;28;20031;-81
2021/03/04 02:25:32;;;;;;;14.30;9.38;;;10.10;99.90;;;;;;5095000;28;20030;-81
2021/03/04 02:28:01;;;;;;;17.20;9.18;;;10.10;99.90;;;;;;5081797;28;20029;-81
2021/03/04 02:30:36;;;;;;;17.02;8.80;;;10.00;99.90;;;;;;5090377;28;20031;-81
2021/03/04 02:33:13;;;;;;;18.63;8.63;;;9.90;99.90;;;;;;5093807;28;20024;-81
2021/03/04 02:35:41;;;;;;;23.73;8.23;;;9.90;99.90;;;;;;5094339;28;20030;-81
2021/03/04 02:38:11;;;;;;;17.08;7.85;;;9.90;99.90;;;;;;5094306;28;20066;-81
2021/03/04 02:40:40;;;;;;;18.45;8.70;;;10.00;99.90;;;;;;5094592;28;20062;-81
2021/03/04 02:43:14;;;;;;;19.02;8.88;;;9.90;99.90;;;;;;5094082;28;20404;-81
2021/03/04 02:45:41;;;;;;;21.13;8.38;;;9.90;99.90;;;;;;5076149;28;20380;-81
2021/03/04 02:48:11;;;;;;;16.70;8.25;;;9.80;99.90;;;;;;5093460;28;20467;-81
2021/03/04 02:50:37;;;;;;;15.82;8.20;;;9.70;99.90;;;;;;5083681;28;20032;-81
2021/03/04 02:53:03;;;;;;;19.33;9.50;;;9.80;99.90;;;;;;5073727;28;20020;-81
2021/03/04 02:55:30;;;;;;;19.58;8.02;;;9.80;99.90;;;;;;5074061;28;20021;-81
2021/03/04 02:57:57;;;;;;;20.20;7.88;;;9.70;99.90;;;;;;5073954;28;20023;-81
2021/03/04 03:00:28;;;;;;;15.68;8.00;;;9.80;99.90;;;;;;5073908;28;20032;-81
2021/03/04 03:02:56;;;;;;;19.65;8.65;;;9.80;99.90;;;;;;5073459;28;20573;-81
2021/03/04 03:05:23;;;;;;;19.13;7.85;;;9.70;99.90;;;;;;5073492;28;20032;-81
2021/03/04 03:07:50;;;;;;;16.02;8.02;;;9.70;99.90;;;;;;5073762;28;20032;-81
2021/03/04 03:10:17;;;;;;;19.95;8.10;;;9.70;99.90;;;;;;5073654;28;20039;-81
2021/03/04 03:12:45;;;;;;;13.73;7.78;;;9.70;99.90;;;;;;5073666;28;20074;-81
2021/03/04 03:15:14;;;;;;;19.52;7.90;;;9.70;99.90;;;;;;5073545;28;20534;-81
2021/03/04 03:17:42;;;;;;;13.77;7.70;;;9.60;99.90;;;;;;5080645;28;20091;-81
2021/03/04 03:20:10;;;;;;;17.77;7.68;;;9.50;99.90;;;;;;5082297;28;20041;-81
2021/03/04 03:22:37;;;;;;;16.17;8.00;;;9.50;99.90;;;;;;5073483;28;20399;-81
2021/03/04 03:25:11;;;;;;;15.25;8.15;;;9.40;99.90;;;;;;5073239;28;20025;-81
2021/03/04 03:27:39;;;;;;;12.73;7.95;;;9.40;99.90;;;;;;5079964;28;20028;-81
2021/03/04 03:30:13;;;;;;;17.73;7.82;;;9.40;99.90;;;;;;5092988;28;20566;-81
2021/03/04 03:32:42;;;;;;;16.83;7.82;;;9.40;99.90;;;;;;5092877;28;20499;-81
2021/03/04 03:35:09;;;;;;;17.33;8.50;;;9.40;99.90;;;;;;5093110;28;20024;-81
2021/03/04 03:37:35;;;;;;;21.27;9.05;;;9.40;99.90;;;;;;5093589;28;20395;-81
2021/03/04 03:40:02;;;;;;;17.63;8.52;;;9.40;99.90;;;;;;5093446;28;20012;-81
2021/03/04 03:42:28;;;;;;;18.00;8.73;;;9.40;99.90;;;;;;5075094;28;20035;-81
2021/03/04 03:44:56;;;;;;;17.27;8.63;;;9.40;99.90;;;;;;5093396;28;20024;-81
2021/03/04 03:47:23;;;;;;;21.35;9.70;;;9.40;99.90;;;;;;5093053;28;20024;-81
2021/03/04 03:49:50;;;;;;;16.50;8.80;;;9.50;99.90;;;;;;5092461;28;20487;-81
2021/03/04 03:52:17;;;;;;;18.05;8.52;;;9.40;99.90;;;;;;5093082;28;20032;-81
2021/03/04 03:54:42;;;;;;;17.75;8.90;;;9.40;99.90;;;;;;5093208;28;20460;-81
2021/03/04 03:57:10;;;;;;;18.27;8.95;;;9.30;99.90;;;;;;5078716;28;20028;-81
2021/03/04 03:59:37;;;;;;;18.38;9.52;;;9.30;99.90;;;;;;5072728;28;20070;-81
2021/03/04 04:02:04;;;;;;;18.27;8.95;;;9.50;99.90;;;;;;5079056;28;20024;-81
2021/03/04 04:04:30;;;;;;;19.27;9.55;;;9.30;99.90;;;;;;5092510;28;20544;-81
2021/03/04 04:06:56;;;;;;;17.02;9.32;;;9.60;99.90;;;;;;5086819;28;20031;-81
2021/03/04 04:09:23;;;;;;;18.77;9.88;;;9.30;99.90;;;;;;5072563;28;20025;-81
2021/03/04 04:11:49;;;;;;;17.77;9.60;;;9.30;99.90;;;;;;5072521;28;20017;-81
2021/03/04 04:14:15;;;;;;;18.95;10.18;;;9.20;99.90;;;;;;5072397;28;20021;-81
2021/03/04 04:16:41;;;;;;;17.25;9.32;;;9.30;99.90;;;;;;5075249;28;20047;-81
2021/03/04 04:19:07;;;;;;;20.48;9.15;;;9.30;99.90;;;;;;5092359;28;20032;-81
2021/03/04 04:21:33;;;;;;;17.02;9.98;;;9.20;99.90;;;;;;5092706;28;20027;-81
2021/03/04 04:23:59;;;;;;;16.80;9.13;;;9.40;99.90;;;;;;5092831;28;20020;-81
2021/03/04 04:26:25;;;;;;;22.50;9.35;;;9.20;99.90;;;;;;5091605;28;20110;-81
2021/03/04 04:28:51;;;;;;;15.30;9.23;;;9.20;99.90;;;;;;5083311;28;20103;-81
2021/03/04 04:31:16;;;;;;;18.23;9.07;;;9.30;99.90;;;;;;5092148;28;20039;-81
2021/03/04 04:33:42;;;;;;;16.85;8.57;;;9.30;99.90;;;;;;5092098;28;20075;-81
2021/03/04 04:36:08;;;;;;;15.73;9.23;;;9.30;99.90;;;;;;5092464;28;20099;-81
2021/03/04 04:38:34;;;;;;;19.88;9.80;;;9.30;99.90;;;;;;5092614;28;20017;-81
2021/03/04 04:41:00;;;;;;;18.73;9.02;;;9.20;99.90;;;;;;5092422;28;20066;-81
2021/03/04 04:43:26;;;;;;;18.63;9.18;;;9.20;99.90;;;;;;5091885;28;20141;-81
2021/03/04 04:45:51;;;;;;;19.90;9.45;;;9.20;99.90;;;;;;5080024;28;20034;-81
2021/03/04 04:48:17;;;;;;;16.33;9.95;;;9.00;99.90;;;;;;5077065;28;20028;-81
2021/03/04 04:50:42;;;;;;;20.20;10.05;;;9.10;99.90;;;;;;5084398;28;20036;-81
2021/03/04 04:53:09;;;;;;;15.43;9.40;;;9.00;99.90;;;;;;5092519;28;20070;-81
2021/03/04 04:55:35;;;;;;;20.27;9.27;;;9.20;99.90;;;;;;5092358;28;20103;-81
2021/03/04 04:58:01;;;;;;;17.25;9.38;;;9.40;99.90;;;;;;5092152;28;20036;-81
2021/03/04 05:00:27;;;;;;;21.92;9.65;;;8.90;99.90;;;;;;5092265;28;20063;-81
2021/03/04 05:02:53;;;;;;;16.67;9.75;;;8.90;99.90;;;;;;5091492;28;20480;-81
2021/03/04 05:05:19;;;;;;;22.15;9.95;;;8.90;99.90;;;;;;5092112;28;20099;-81
2021/03/04 05:07:44;;;;;;;20.35;9.95;;;8.80;99.90;;;;;;5092173;28;20124;-81
2021/03/04 05:10:11;;;;;;;20.13;10.27;;;8.80;99.90;;;;;;5092286;28;20078;-81
2021/03/04 05:12:36;;;;;;;20.83;10.88;;;8.80;99.90;;;;;;5092011;28;20027;-81
2021/03/04 05:15:05;;;;;;;20.88;10.40;;;8.70;99.90;;;;;;5092045;28;20032;-81
2021/03/04 05:17:30;;;;;;;18.40;10.68;;;8.80;99.90;;;;;;5091396;28;20530;-81
2021/03/04 05:19:56;;;;;;;22.30;11.27;;;8.70;99.90;;;;;;5092191;28;20079;-81
2021/03/04 05:22:22;;;;;;;19.92;10.45;;;8.70;99.90;;;;;;5092010;28;20116;-81
2021/03/04 05:24:47;;;;;;;19.10;10.68;;;8.60;99.90;;;;;;5091438;28;20426;-81
2021/03/04 05:27:13;;;;;;;20.60;10.05;;;8.60;99.90;;;;;;5091987;28;20024;-81
2021/03/04 05:29:38;;;;;;;17.65;10.77;;;8.50;99.90;;;;;;5091185;28;20027;-81
2021/03/04 05:32:05;;;;;;;23.40;11.95;;;8.50;99.90;;;;;;5091717;28;20032;-81
2021/03/04 05:34:30;;;;;;;26.48;11.50;;;8.50;99.90;;;;;;5091859;28;20028;-81
2021/03/04 05:36:56;;;;;;;23.33;11.38;;;8.50;99.90;;;;;;5091861;28;20031;-81
2021/03/04 05:39:21;;;;;;;19.02;11.02;;;8.80;99.90;;;;;;5091663;28;20024;-81
2021/03/04 05:41:47;;;;;;;24.08;11.23;;;8.90;99.90;;;;;;5093496;28;20020;-81
2021/03/04 05:44:14;;;;;;;26.27;11.05;;;8.40;99.90;;;;;;5094975;28;20029;-81
2021/03/04 05:46:41;;;;;;;22.42;10.73;;;8.30;99.90;;;;;;5095203;28;20024;-81
2021/03/04 05:49:11;;;;;;;19.95;11.02;;;8.30;99.90;;;;;;5095324;28;20425;-81
2021/03/04 05:51:37;;;;;;;20.98;11.13;;;8.30;99.90;;;;;;5095660;28;20027;-81
2021/03/04 05:54:07;;;;;;;23.17;11.25;;;8.50;99.90;;;;;;5095313;28;20093;-81
2021/03/04 05:56:36;;;;;;;21.52;10.05;;;8.20;99.90;;;;;;5095316;28;20382;-81
2021/03/04 05:59:02;;;;;;;19.77;10.88;;;8.10;99.90;;;;;;5094604;28;20085;-81
2021/03/04 06:01:29;;;;;;;23.45;11.55;;;8.00;99.90;;;;;;5094367;28;20050;-81
2021/03/04 06:03:54;;;;;;;19.63;11.27;;;7.90;99.90;;;;;;5094492;28;20040;-81
2021/03/04 06:06:20;;;;;;;25.20;11.25;;;7.90;99.90;;;;;;5085452;28;20017;-82
2021/03/04 06:08:46;;;;;;;20.83;11.23;;;8.10;99.90;;;;;;5076525;28;20032;-81
2021/03/04 06:11:11;;;;;;;21.30;10.93;;;8.10;99.90;;;;;;5094404;28;20031;-81
2021/03/04 06:13:37;;;;;;;19.58;10.77;;;7.90;99.90;;;;;;5094136;28;20103;-81
2021/03/04 06:16:03;;;;;;;21.65;11.15;;;7.90;99.90;;;;;;5087646;28;20412;-81
2021/03/04 06:18:42;;;;;;;18.25;10.77;;;7.90;99.90;;;;;;5075334;28;20025;-80
2021/03/04 06:21:22;;;;;;;22.73;10.95;;;8.20;99.90;;;;;;5075350;28;20029;-81
2021/03/04 06:23:48;;;;;;;18.33;11.30;;;7.70;99.90;;;;;;5092061;28;20120;-81
2021/03/04 06:26:29;;;;;;;24.83;11.20;;;7.80;99.90;;;;;;5093455;28;20024;-81
2021/03/04 06:28:56;;;;;;;21.33;11.35;;;7.80;99.90;;;;;;5094214;28;20509;-81
2021/03/04 06:31:22;;;;;;;23.98;11.32;;;7.90;99.90;;;;;;5094623;28;20048;-81
2021/03/04 06:33:47;;;;;;;20.67;11.55;;;7.90;99.90;;;;;;5094944;28;20048;-81
2021/03/04 06:36:16;;;;;;;25.08;11.75;;;7.90;99.90;;;;;;5095405;28;20058;-82
2021/03/04 06:38:52;;;;;;;22.48;12.00;;;7.60;99.90;;;;;;5075265;28;20017;-81
2021/03/04 06:41:28;;;;;;;21.77;12.40;;;7.80;99.90;;;;;;5089714;28;20028;-82
2021/03/04 06:44:01;;;;;;;20.27;11.63;;;7.60;99.90;;;;;;5088312;28;20020;-82
2021/03/04 06:46:27;;;;;;;21.70;11.50;;;7.60;99.90;;;;;;5080340;28;20016;-82
2021/03/04 06:48:53;;;;;;;18.85;11.73;;;7.70;99.90;;;;;;5092749;28;20032;-83
2021/03/04 06:51:19;;;;;;;21.98;12.20;;;7.70;99.90;;;;;;5084864;28;20031;-82
2021/03/04 06:53:52;;;;;;;20.13;12.65;;;7.70;99.90;;;;;;5081925;28;20025;-81
2021/03/04 06:56:28;;;;;;;22.95;12.70;;;7.70;99.90;;;;;;5093038;28;20388;-82
2021/03/04 06:59:01;;;;;;;29.90;15.50;;;7.70;99.90;;;;;;5081597;28;20027;-82
2021/03/04 07:01:27;;;;;;;27.85;13.77;;;7.80;99.90;;;;;;5077858;28;20024;-82
2021/03/04 07:03:54;;;;;;;22.63;13.30;;;7.90;99.90;;;;;;5084518;28;20051;-82
2021/03/04 07:06:24;;;;;;;24.88;11.80;;;8.00;99.90;;;;;;5074976;28;20369;-84
2021/03/04 07:08:52;;;;;;;30.45;13.82;;;8.10;99.90;;;;;;5061445;28;20021;-81
2021/03/04 07:11:19;;;;;;;26.92;12.57;;;8.30;99.90;;;;;;5081679;28;20110;-82
2021/03/04 07:13:47;;;;;;;25.05;12.45;;;8.40;99.90;;;;;;5081415;28;20392;-81
2021/03/04 07:16:24;;;;;;;29.58;13.05;;;8.60;99.90;;;;;;5073405;28;20020;-82
2021/03/04 07:18:52;;;;;;;20.10;12.55;;;8.50;99.90;;;;;;5084368;28;20021;-82
2021/03/04 07:21:18;;;;;;;25.35;12.50;;;8.70;99.90;;;;;;5084357;28;20057;-82
2021/03/04 07:23:46;;;;;;;21.83;12.95;;;8.70;99.90;;;;;;5085198;28;20020;-82
2021/03/04 07:26:13;;;;;;;22.90;13.25;;;8.70;99.90;;;;;;5077808;28;20135;-82
2021/03/04 07:28:41;;;;;;;25.80;12.95;;;9.40;99.90;;;;;;5091311;28;20051;-82
2021/03/04 07:31:07;;;;;;;25.77;12.43;;;9.00;99.90;;;;;;5080476;28;20067;-82
2021/03/04 07:33:35;;;;;;;25.27;12.45;;;9.10;99.90;;;;;;5081063;28;20499;-82
2021/03/04 07:36:10;;;;;;;27.42;12.65;;;9.20;99.90;;;;;;5092912;28;20146;-81
2021/03/04 07:38:36;;;;;;;23.45;13.18;;;9.40;99.90;;;;;;5092640;28;20491;-82
2021/03/04 07:41:12;;;;;;;23.55;12.65;;;9.40;99.90;;;;;;5091231;28;20479;-82
2021/03/04 07:43:47;;;;;;;29.38;13.25;;;9.60;99.90;;;;;;5091661;28;20509;-81
2021/03/04 07:46:49;;;;;;;28.92;13.18;;;9.80;99.90;;;;;;5093176;28;20113;-84
2021/03/04 07:49:15;;;;;;;26.85;12.93;;;9.90;99.90;;;;;;5074642;28;20030;-82
2021/03/04 07:51:46;;;;;;;24.50;13.10;;;10.10;99.90;;;;;;5092951;28;20099;-82
2021/03/04 07:54:13;;;;;;;28.00;14.15;;;10.10;99.90;;;;;;5093013;28;20422;-81
2021/03/04 07:56:39;;;;;;;29.70;14.30;;;10.30;99.90;;;;;;5092874;28;20433;-83
2021/03/04 07:59:13;;;;;;;26.17;13.43;;;10.20;99.90;;;;;;5093019;28;20099;-83
2021/03/04 08:01:40;;;;;;;30.73;14.00;;;10.20;99.90;;;;;;5093036;28;20384;-82
2021/03/04 08:04:06;;;;;;;26.27;14.82;;;10.90;99.90;;;;;;5091729;28;20051;-82
2021/03/04 08:06:42;;;;;;;27.45;13.73;;;10.80;99.90;;;;;;5093129;28;20012;-82
2021/03/04 08:09:08;;;;;;;30.38;15.18;;;10.90;99.90;;;;;;5092299;28;20028;-82
2021/03/04 08:11:35;;;;;;;30.23;14.65;;;11.60;99.90;;;;;;5092850;28;20020;-82
2021/03/04 08:14:13;;;;;;;24.33;14.70;;;11.10;99.90;;;;;;5092730;28;20028;-82
2021/03/04 08:16:39;;;;;;;23.50;13.82;;;11.60;99.90;;;;;;5092719;28;20395;-82
2021/03/04 08:19:04;;;;;;;27.05;14.30;;;11.30;99.90;;;;;;5092491;28;20029;-82
2021/03/04 08:21:31;;;;;;;21.98;13.73;;;11.30;99.90;;;;;;5092685;28;20016;-82
2021/03/04 08:23:57;;;;;;;24.45;15.93;;;11.90;99.90;;;;;;5092352;28;20025;-82
2021/03/04 08:26:28;;;;;;;33.22;14.30;;;11.90;99.90;;;;;;5092554;28;20017;-82
2021/03/04 08:29:08;;;;;;;27.23;14.32;;;12.20;99.90;;;;;;5092440;28;20028;-82
2021/03/04 08:31:34;;;;;;;36.78;15.23;;;12.30;99.90;;;;;;5092599;28;20036;-82
2021/03/04 08:34:00;;;;;;;36.33;16.17;;;12.90;99.90;;;;;;5092094;28;20027;-82
2021/03/04 08:36:37;;;;;;;31.80;16.35;;;12.40;99.90;;;;;;5092395;28;20039;-82
2021/03/04 08:39:02;;;;;;;32.80;16.70;;;12.50;99.90;;;;;;5092048;28;20472;-82
2021/03/04 08:41:28;;;;;;;38.90;19.80;;;13.00;99.90;;;;;;5092440;28;20044;-82
2021/03/04 08:43:54;;;;;;;34.13;16.40;;;12.80;99.90;;;;;;5092469;28;20541;-82
2021/03/04 08:46:19;;;;;;;30.10;15.73;;;13.20;99.90;;;;;;5092368;28;20043;-82
2021/03/04 08:48:48;;;;;;;24.98;16.25;;;14.00;99.90;;;;;;5092405;28;20052;-82
2021/03/04 08:51:14;;;;;;;27.25;15.77;;;15.50;99.90;;;;;;5092282;28;20028;-82
2021/03/04 08:53:40;;;;;;;30.70;16.35;;;17.70;99.90;;;;;;5091854;28;20028;-82
2021/03/04 08:56:08;;;;;;;32.47;16.48;;;18.90;99.90;;;;;;5091965;28;20383;-82
2021/03/04 08:58:42;;;;;;;26.65;16.75;;;20.50;99.90;;;;;;5092314;28;20028;-82
2021/03/04 09:01:07;;;;;;;29.25;16.05;;;21.50;99.90;;;;;;5092203;28;20453;-82
2021/03/04 09:03:38;;;;;;;30.63;15.35;;;22.70;99.90;;;;;;5092024;28;20079;-82
2021/03/04 09:06:11;;;;;;;24.00;14.50;;;24.10;99.90;;;;;;5092189;28;20016;-83
2021/03/04 09:08:41;;;;;;;25.77;15.40;;;24.40;99.90;;;;;;5073804;28;20032;-83
2021/03/04 09:11:09;;;;;;;29.45;17.38;;;25.50;99.90;;;;;;5092028;28;20020;-83
2021/03/04 09:13:36;;;;;;;25.95;15.23;;;25.50;99.90;;;;;;5092089;28;20107;-83
2021/03/04 09:16:05;;;;;;;22.17;14.80;;;24.70;99.90;;;;;;5094301;28;20028;-83
2021/03/04 09:18:40;;;;;;;22.45;14.02;;;25.40;99.90;;;;;;5096142;28;20028;-83
2021/03/04 09:21:09;;;;;;;21.38;14.13;;;25.80;99.90;;;;;;5095873;28;20052;-83
2021/03/04 09:23:35;;;;;;;20.42;12.93;;;26.70;99.90;;;;;;5095657;28;20077;-82
2021/03/04 09:26:01;;;;;;;26.63;14.27;;;26.10;99.90;;;;;;5095827;28;20106;-82
2021/03/04 09:28:27;;;;;;;26.20;15.02;;;26.00;99.90;;;;;;5095775;28;20095;-82
2021/03/04 09:30:52;;;;;;;22.55;14.52;;;25.20;99.90;;;;;;5095670;28;20024;-82
2021/03/04 09:33:23;;;;;;;24.63;14.85;;;25.70;99.90;;;;;;5091041;28;20009;-82
2021/03/04 09:36:00;;;;;;;25.75;14.15;;;26.60;99.90;;;;;;5075526;28;20412;-82
2021/03/04 09:38:28;;;;;;;24.13;13.98;;;26.40;99.90;;;;;;5075189;28;20512;-82
2021/03/04 09:40:55;;;;;;;21.70;14.23;;;27.20;99.90;;;;;;5075344;28;20583;-82
2021/03/04 09:43:22;;;;;;;25.65;14.70;;;27.50;99.90;;;;;;5075304;28;20043;-82
2021/03/04 09:45:50;;;;;;;21.38;13.52;;;27.40;99.90;;;;;;5075133;28;20035;-82
2021/03/04 09:48:17;;;;;;;21.17;12.23;;;26.80;99.90;;;;;;5075166;28;20017;-82
2021/03/04 09:50:53;;;;;;;21.23;12.10;;;25.70;99.90;;;;;;5074934;28;20165;-82
2021/03/04 09:53:19;;;;;;;23.77;12.70;;;26.30;99.90;;;;;;5075205;28;20078;-82
2021/03/04 09:55:46;;;;;;;20.23;12.50;;;25.70;99.90;;;;;;5075170;28;20024;-82
2021/03/04 09:58:19;;;;;;;20.80;12.38;;;25.60;99.90;;;;;;5074941;28;20037;-82
2021/03/04 10:00:46;;;;;;;19.77;11.82;;;25.40;99.90;;;;;;5075252;28;20488;-82
2021/03/04 10:03:13;;;;;;;20.27;12.20;;;24.00;99.90;;;;;;5074709;28;20052;-82
2021/03/04 10:05:49;;;;;;;22.02;11.85;;;22.80;99.90;;;;;;5074727;28;20032;-82
2021/03/04 10:08:19;;;;;;;20.77;12.10;;;22.80;99.90;;;;;;5074872;28;20051;-83
2021/03/04 10:10:48;;;;;;;20.00;12.15;;;24.60;99.90;;;;;;5074820;28;20025;-83
2021/03/04 10:13:14;;;;;;;21.08;11.52;;;24.60;99.90;;;;;;5074673;28;20439;-83
2021/03/04 10:15:42;;;;;;;20.30;11.38;;;24.00;99.90;;;;;;5074698;28;20029;-83
2021/03/04 10:18:15;;;;;;;18.35;11.18;;;24.70;99.90;;;;;;5074639;28;20021;-83
2021/03/04 10:20:44;;;;;;;17.30;10.77;;;24.90;99.90;;;;;;5074305;28;20419;-83
2021/03/04 10:23:10;;;;;;;23.83;12.07;;;25.00;99.90;;;;;;5074585;28;20021;-83
2021/03/04 10:25:36;;;;;;;20.63;11.73;;;27.20;99.90;;;;;;5074693;28;20025;-83
2021/03/04 10:28:03;;;;;;;19.50;11.32;;;28.20;99.90;;;;;;5073784;28;20025;-83
2021/03/04 10:30:31;;;;;;;20.85;12.07;;;30.20;99.90;;;;;;5074253;28;20430;-83
2021/03/04 10:32:57;;;;;;;19.00;11.80;;;29.40;99.90;;;;;;5074162;28;20024;-83
2021/03/04 10:35:24;;;;;;;23.90;12.15;;;29.90;99.90;;;;;;5074103;28;20104;-83
2021/03/04 10:37:51;;;;;;;19.13;11.35;;;31.50;99.90;;;;;;5074431;28;20423;-83
2021/03/04 10:40:18;;;;;;;17.50;11.60;;;30.10;99.90;;;;;;5074189;28;20036;-83
2021/03/04 10:42:44;;;;;;;17.10;11.35;;;30.70;99.90;;;;;;5074199;28;20550;-83
2021/03/04 10:45:12;;;;;;;19.02;11.50;;;31.20;99.90;;;;;;5074130;28;20060;-83
2021/03/04 10:47:40;;;;;;;21.23;11.95;;;31.90;99.90;;;;;;5074304;28;20047;-83
2021/03/04 10:50:07;;;;;;;17.50;11.57;;;31.00;99.90;;;;;;5073659;28;20028;-83
2021/03/04 10:52:33;;;;;;;17.88;11.32;;;32.20;99.90;;;;;;5073555;28;20488;-82
2021/03/04 10:54:59;;;;;;;19.88;11.10;;;32.30;99.90;;;;;;5073927;28;20028;-82
2021/03/04 10:57:24;;;;;;;21.65;11.63;;;32.60;99.90;;;;;;5073923;28;20069;-82
2021/03/04 10:59:50;;;;;;;18.98;10.77;;;33.70;99.90;;;;;;5074041;28;20081;-82
2021/03/04 11:02:16;;;;;;;17.90;10.73;;;34.10;99.90;;;;;;5073373;28;20454;-82
2021/03/04 11:04:42;;;;;;;18.45;10.52;;;34.20;99.90;;;;;;5073572;28;20039;-82
2021/03/04 11:07:07;;;;;;;20.98;10.35;;;33.90;99.90;;;;;;5073615;28;20361;-82
2021/03/04 11:09:34;;;;;;;20.88;10.18;;;34.40;99.90;;;;;;5073493;28;20352;-82
2021/03/04 11:11:59;;;;;;;18.77;10.73;;;32.60;99.90;;;;;;5073748;28;20032;-82
2021/03/04 11:14:25;;;;;;;16.02;10.35;;;32.20;99.90;;;;;;5055614;28;20025;-82
2021/03/04 11:16:51;;;;;;;19.08;10.75;;;31.80;99.90;;;;;;5073508;28;20415;-82
2021/03/04 11:19:16;;;;;;;19.20;10.02;;;30.90;99.90;;;;;;5073299;28;20056;-82
2021/03/04 11:21:45;;;;;;;18.08;10.98;;;31.40;99.90;;;;;;5073509;28;20020;-82
2021/03/04 11:24:11;;;;;;;22.48;11.35;;;31.70;99.90;;;;;;5073415;28;20064;-82
2021/03/04 11:26:40;;;;;;;22.67;10.45;;;32.00;99.90;;;;;;5073283;28;20020;-82
2021/03/04 11:29:07;;;;;;;17.30;10.98;;;31.30;99.90;;;;;;5073284;28;20024;-82
2021/03/04 11:31:34;;;;;;;18.38;10.60;;;31.30;99.90;;;;;;5073145;28;20111;-82
2021/03/04 11:34:00;;;;;;;19.23;10.82;;;33.10;99.90;;;;;;5083453;28;20042;-82
2021/03/04 11:36:27;;;;;;;17.00;9.82;;;32.20;99.90;;;;;;5092956;28;20038;-82
2021/03/04 11:38:53;;;;;;;23.23;10.52;;;32.60;99.90;;;;;;5092408;28;20024;-82
2021/03/04 11:41:19;;;;;;;14.65;9.93;;;32.40;99.90;;;;;;5092838;28;20039;-82
2021/03/04 11:43:44;;;;;;;17.75;10.02;;;31.50;99.90;;;;;;5093157;28;20070;-82
2021/03/04 11:46:11;;;;;;;21.05;10.30;;;29.50;99.90;;;;;;5093255;28;20052;-82
2021/03/04 11:48:37;;;;;;;17.80;9.98;;;29.70;99.90;;;;;;5092932;28;20031;-81
2021/03/04 11:51:02;;;;;;;22.90;10.55;;;30.90;99.90;;;;;;5093013;28;20384;-81
2021/03/04 11:53:28;;;;;;;17.52;9.88;;;29.50;99.90;;;;;;5093029;28;20484;-81
2021/03/04 11:55:53;;;;;;;17.55;10.45;;;30.60;99.90;;;;;;5093265;28;20094;-81
2021/03/04 11:58:19;;;;;;;18.55;10.85;;;31.50;99.90;;;;;;5092974;28;20042;-81
2021/03/04 12:00:45;;;;;;;17.70;10.65;;;32.10;99.90;;;;;;5093070;28;20039;-81
2021/03/04 12:03:10;;;;;;;18.30;10.48;;;33.40;99.90;;;;;;5092549;28;20048;-82
2021/03/04 12:05:36;;;;;;;18.45;11.23;;;33.60;99.90;;;;;;5092855;28;20475;-82
2021/03/04 12:08:02;;;;;;;20.77;10.68;;;31.80;99.90;;;;;;5093004;28;20085;-82
2021/03/04 12:10:27;;;;;;;19.98;11.32;;;32.00;99.90;;;;;;5092692;28;20380;-82
2021/03/04 12:12:53;;;;;;;17.83;11.30;;;31.80;99.90;;;;;;5092950;28;20024;-82
2021/03/04 12:15:20;;;;;;;21.05;11.50;;;31.90;99.90;;;;;;5092829;28;20372;-82
2021/03/04 12:17:45;;;;;;;20.92;10.60;;;31.70;99.90;;;;;;5092603;28;20038;-82
2021/03/04 12:20:12;;;;;;;17.85;10.15;;;32.00;99.90;;;;;;5092848;28;20520;-82
2021/03/04 12:22:37;;;;;;;22.90;10.85;;;31.40;99.90;;;;;;5092688;28;20028;-82
2021/03/04 12:25:06;;;;;;;22.90;10.77;;;31.90;99.90;;;;;;5092753;28;20020;-82
2021/03/04 12:27:32;;;;;;;15.60;10.48;;;31.00;99.90;;;;;;5092315;28;20024;-82
2021/03/04 12:29:57;;;;;;;17.02;10.25;;;32.70;99.90;;;;;;5092552;28;20076;-82
2021/03/04 12:32:23;;;;;;;24.85;10.98;;;32.70;99.90;;;;;;5092313;28;20025;-82
2021/03/04 12:34:48;;;;;;;22.63;10.63;;;33.20;99.90;;;;;;5092415;28;20020;-82
2021/03/04 12:37:14;;;;;;;20.33;10.95;;;33.30;99.90;;;;;;5092599;28;20146;-82